Time;durP1;ratioP1;P1;durP2;ratioP2;P2;SDS_P1;SDS_P2;PMS_P1;PMS_P2;Temp;Humidity;BMP_temperature;BMP_pressure;BME280_temperature;BME280_humidity;BME280_pressure;Samples;Min_cycle;Max_cycle;Signal;HPM_P1;HPM_P2
2022/08/24 00:02:12;;;;;;;18.35;8.98;;;;;;;;;;16884041;29;20181;-81
2022/08/24 00:10:32;;;;;;;14.43;9.30;;;;;;;;;;16886593;29;20273;-81
2022/08/24 00:18:53;;;;;;;16.95;8.68;;;;;;;;;;16886008;29;20600;-81
2022/08/24 00:27:14;;;;;;;15.50;9.23;;;;;;;;;;16885652;29;20209;-81
2022/08/24 00:35:35;;;;;;;18.77;9.23;;;;;;;;;;16894352;28;20648;-81
2022/08/24 00:43:57;;;;;;;19.15;9.13;;;;;;;;;;16893760;28;20229;-81
2022/08/24 00:52:20;;;;;;;15.93;8.63;;;;;;;;;;16893432;28;20561;-81
2022/08/24 01:00:42;;;;;;;17.35;8.52;;;;;;;;;;16891971;28;20234;-81
2022/08/24 01:09:03;;;;;;;19.35;8.73;;;;;;;;;;16892648;29;20545;-81
2022/08/24 01:26:04;;;;;;;17.63;9.52;;;;;;;;;;16893611;29;20279;-81
2022/08/24 01:34:25;;;;;;;19.98;9.57;;;;;;;;;;16890394;28;20179;-81
2022/08/24 01:42:49;;;;;;;15.60;8.93;;;;;;;;;;16889236;28;20224;-81
2022/08/24 01:51:09;;;;;;;18.55;8.82;;;;;;;;;;16890475;28;20201;-81
2022/08/24 01:59:30;;;;;;;17.98;8.60;;;;;;;;;;16889698;28;20275;-81
2022/08/24 02:07:50;;;;;;;15.25;8.45;;;;;;;;;;16889615;28;20225;-81
2022/08/24 02:16:11;;;;;;;23.02;9.30;;;;;;;;;;16888290;29;20196;-81
2022/08/24 02:24:31;;;;;;;13.45;8.45;;;;;;;;;;16888083;29;20181;-81
2022/08/24 02:32:52;;;;;;;17.65;9.60;;;;;;;;;;16890115;28;20216;-81
2022/08/24 02:41:12;;;;;;;17.65;8.77;;;;;;;;;;16888019;28;20280;-81
2022/08/24 02:49:33;;;;;;;18.48;9.25;;;;;;;;;;16886740;28;20212;-81
2022/08/24 02:57:54;;;;;;;21.05;9.38;;;;;;;;;;16886428;28;20229;-80
2022/08/24 03:06:14;;;;;;;19.23;9.20;;;;;;;;;;16886951;29;20212;-80
2022/08/24 03:14:34;;;;;;;19.17;9.82;;;;;;;;;;16885670;29;20178;-81
2022/08/24 03:22:55;;;;;;;15.65;10.00;;;;;;;;;;16887108;29;20213;-81
2022/08/24 03:31:15;;;;;;;19.48;10.15;;;;;;;;;;16884945;29;20305;-81
2022/08/24 03:39:36;;;;;;;13.40;10.27;;;;;;;;;;16885520;29;20201;-81
2022/08/24 03:47:56;;;;;;;18.98;9.90;;;;;;;;;;16886825;28;20201;-81
2022/08/24 03:56:17;;;;;;;16.80;9.85;;;;;;;;;;16884710;28;20308;-81
2022/08/24 04:04:37;;;;;;;18.50;10.00;;;;;;;;;;16889034;28;20220;-81
2022/08/24 04:13:00;;;;;;;19.05;11.18;;;;;;;;;;16895571;29;20287;-81
2022/08/24 04:21:27;;;;;;;16.60;10.52;;;;;;;;;;16894126;29;20633;-81
2022/08/24 04:29:48;;;;;;;21.25;11.00;;;;;;;;;;16894720;28;20224;-81
2022/08/24 04:38:08;;;;;;;14.20;9.95;;;;;;;;;;16893254;28;20181;-81
2022/08/24 04:46:29;;;;;;;18.60;10.85;;;;;;;;;;16893944;28;20235;-81
2022/08/24 04:54:49;;;;;;;13.55;9.43;;;;;;;;;;16892741;28;20367;-81
2022/08/24 05:03:10;;;;;;;17.27;9.15;;;;;;;;;;16893151;29;20188;-81
2022/08/24 05:11:30;;;;;;;13.02;8.85;;;;;;;;;;16891898;29;20206;-80
2022/08/24 05:19:51;;;;;;;17.13;8.75;;;;;;;;;;16892096;28;20181;-81
2022/08/24 05:28:11;;;;;;;14.88;9.00;;;;;;;;;;16896281;28;20263;-81
2022/08/24 05:36:37;;;;;;;16.85;9.32;;;;;;;;;;16938849;28;20193;-80
2022/08/24 05:44:58;;;;;;;17.42;9.10;;;;;;;;;;16950043;29;20220;-81
2022/08/24 05:53:18;;;;;;;12.65;8.13;;;;;;;;;;16898340;28;20255;-81
2022/08/24 06:01:40;;;;;;;19.45;9.43;;;;;;;;;;16900291;29;20549;-81
2022/08/24 06:10:00;;;;;;;17.17;9.43;;;;;;;;;;16896375;29;20255;-81
2022/08/24 06:18:21;;;;;;;16.55;8.85;;;;;;;;;;16892453;28;20580;-81
2022/08/24 06:35:21;;;;;;;16.48;8.43;;;;;;;;;;16900536;29;20675;-80
2022/08/24 06:43:41;;;;;;;18.02;8.13;;;;;;;;;;16894264;29;20206;-78
2022/08/24 06:52:01;;;;;;;12.60;7.78;;;;;;;;;;16889627;29;20299;-79
2022/08/24 07:00:22;;;;;;;15.75;6.85;;;;;;;;;;16893205;28;20265;-80
2022/08/24 07:08:43;;;;;;;16.52;7.55;;;;;;;;;;16891888;29;20201;-80
2022/08/24 07:17:03;;;;;;;13.95;6.20;;;;;;;;;;16896794;29;20177;-80
2022/08/24 07:25:23;;;;;;;16.30;6.70;;;;;;;;;;16889616;29;20594;-80
2022/08/24 07:33:44;;;;;;;14.98;6.70;;;;;;;;;;16895877;29;20220;-78
2022/08/24 07:42:04;;;;;;;16.02;6.57;;;;;;;;;;16902358;29;20224;-80
2022/08/24 07:50:25;;;;;;;16.40;6.27;;;;;;;;;;16892482;28;20731;-80
2022/08/24 07:58:46;;;;;;;17.63;7.93;;;;;;;;;;16896678;28;20953;-80
2022/08/24 08:07:06;;;;;;;16.75;6.50;;;;;;;;;;16895392;29;20205;-80
2022/08/24 08:15:26;;;;;;;15.05;7.10;;;;;;;;;;16895793;29;20173;-79
2022/08/24 08:32:26;;;;;;;21.15;7.40;;;;;;;;;;16899405;29;20212;-81
2022/08/24 08:41:13;;;;;;;19.25;7.45;;;;;;;;;;16898424;29;20201;-81
2022/08/24 08:49:34;;;;;;;22.75;7.95;;;;;;;;;;16929301;28;20225;-80
2022/08/24 08:58:04;;;;;;;20.83;7.18;;;;;;;;;;16900497;28;20676;-82
2022/08/24 09:06:39;;;;;;;26.27;8.25;;;;;;;;;;16902766;29;20304;-79
2022/08/24 09:15:02;;;;;;;27.13;7.93;;;;;;;;;;16915573;29;20232;-82
2022/08/24 09:23:32;;;;;;;26.65;8.00;;;;;;;;;;16912819;29;20222;-80
2022/08/24 09:31:52;;;;;;;27.00;7.63;;;;;;;;;;16900881;28;20275;-80
2022/08/24 09:40:23;;;;;;;25.95;7.70;;;;;;;;;;16893014;28;20205;-80
2022/08/24 09:48:57;;;;;;;20.63;7.00;;;;;;;;;;16899556;29;20556;-80
2022/08/24 09:57:45;;;;;;;23.73;7.82;;;;;;;;;;16891833;29;20237;-81
2022/08/24 10:06:24;;;;;;;32.83;7.55;;;;;;;;;;16885795;29;20576;-81
2022/08/24 10:14:52;;;;;;;29.27;7.68;;;;;;;;;;16887455;29;20181;-80
2022/08/24 10:23:15;;;;;;;36.47;7.45;;;;;;;;;;16895842;29;20173;-80
2022/08/24 10:31:41;;;;;;;39.80;8.10;;;;;;;;;;16896640;28;20212;-80
2022/08/24 10:40:15;;;;;;;33.15;7.43;;;;;;;;;;16896800;28;20583;-80
2022/08/24 10:48:35;;;;;;;40.28;7.65;;;;;;;;;;16889973;29;20213;-81
2022/08/24 10:57:02;;;;;;;35.65;7.40;;;;;;;;;;16888447;28;20707;-78
2022/08/24 11:05:33;;;;;;;31.80;7.35;;;;;;;;;;16906555;29;20225;-79
2022/08/24 11:13:59;;;;;;;37.20;8.20;;;;;;;;;;16963784;29;20213;-80
2022/08/24 11:22:28;;;;;;;46.15;8.30;;;;;;;;;;16892563;29;20219;-79
2022/08/24 11:30:48;;;;;;;44.33;8.48;;;;;;;;;;16890861;28;20699;-80
2022/08/24 11:39:28;;;;;;;41.58;7.70;;;;;;;;;;16899043;29;20193;-80
2022/08/24 11:47:56;;;;;;;35.90;8.40;;;;;;;;;;16891670;29;20221;-81
2022/08/24 11:56:35;;;;;;;36.97;8.60;;;;;;;;;;16887547;28;20307;-81
2022/08/24 12:05:04;;;;;;;34.65;8.68;;;;;;;;;;16886482;28;20204;-80
2022/08/24 12:13:29;;;;;;;34.92;8.18;;;;;;;;;;16885141;29;20564;-80
2022/08/24 12:21:52;;;;;;;41.75;9.18;;;;;;;;;;16888502;29;20632;-80
2022/08/24 12:30:14;;;;;;;54.38;9.93;;;;;;;;;;16897664;28;20556;-81
2022/08/24 12:38:39;;;;;;;46.03;8.90;;;;;;;;;;16904179;28;20579;-81
2022/08/24 12:47:00;;;;;;;35.47;8.27;;;;;;;;;;16897634;28;20209;-80
2022/08/24 12:55:20;;;;;;;48.25;9.05;;;;;;;;;;16898538;28;20240;-80
2022/08/24 13:03:42;;;;;;;42.78;9.15;;;;;;;;;;16897712;29;20181;-80
2022/08/24 13:12:21;;;;;;;49.05;9.00;;;;;;;;;;16896479;29;20684;-80
2022/08/24 13:20:41;;;;;;;46.42;8.95;;;;;;;;;;16891072;28;20538;-81
2022/08/24 13:29:02;;;;;;;41.25;9.10;;;;;;;;;;16892833;28;20205;-80
2022/08/24 13:37:24;;;;;;;44.92;8.82;;;;;;;;;;16902165;28;20611;-81
2022/08/24 13:46:16;;;;;;;47.78;10.25;;;;;;;;;;16893717;29;20292;-80
2022/08/24 13:54:39;;;;;;;43.40;9.15;;;;;;;;;;16888738;28;20236;-81
2022/08/24 14:03:00;;;;;;;37.83;8.98;;;;;;;;;;16889405;28;20238;-81
2022/08/24 14:11:39;;;;;;;37.63;9.23;;;;;;;;;;16889770;28;20201;-81
2022/08/24 14:20:06;;;;;;;36.35;8.15;;;;;;;;;;16889739;29;20193;-81
2022/08/24 14:28:40;;;;;;;29.73;7.57;;;;;;;;;;16889797;28;20212;-81
2022/08/24 14:37:04;;;;;;;34.33;8.88;;;;;;;;;;16890365;28;20181;-81
2022/08/24 14:45:24;;;;;;;33.88;7.82;;;;;;;;;;16888015;29;20303;-81
2022/08/24 14:53:54;;;;;;;30.85;7.30;;;;;;;;;;16887225;28;20692;-81
2022/08/24 15:02:21;;;;;;;19.42;6.22;;;;;;;;;;16889148;29;20173;-81
2022/08/24 15:10:41;;;;;;;26.67;7.05;;;;;;;;;;16898432;29;20216;-80
2022/08/24 15:19:10;;;;;;;25.35;6.97;;;;;;;;;;16886437;29;20209;-80
2022/08/24 15:27:39;;;;;;;31.88;11.07;;;;;;;;;;16885906;28;20563;-80
2022/08/24 15:36:10;;;;;;;30.88;8.98;;;;;;;;;;16890264;29;20232;-80
2022/08/24 15:44:30;;;;;;;35.03;8.85;;;;;;;;;;16885577;28;20201;-80
2022/08/24 15:52:56;;;;;;;38.92;9.35;;;;;;;;;;16883162;28;20205;-80
2022/08/24 16:10:07;;;;;;;22.92;6.85;;;;;;;;;;16890737;29;20297;-81
2022/08/24 16:18:46;;;;;;;16.58;5.88;;;;;;;;;;16896201;28;20181;-80
2022/08/24 16:27:15;;;;;;;18.23;8.20;;;;;;;;;;16895411;29;20255;-80
2022/08/24 16:35:36;;;;;;;19.98;7.13;;;;;;;;;;16895318;29;20629;-80
2022/08/24 16:43:56;;;;;;;12.43;6.95;;;;;;;;;;16895232;28;20201;-80
2022/08/24 16:52:17;;;;;;;16.27;7.90;;;;;;;;;;16892956;28;20578;-79
2022/08/24 17:00:37;;;;;;;19.60;8.52;;;;;;;;;;16895189;29;20237;-79
2022/08/24 17:08:58;;;;;;;18.58;7.72;;;;;;;;;;16901105;29;20212;-79
2022/08/24 17:17:20;;;;;;;22.33;8.27;;;;;;;;;;16890055;29;20184;-80
2022/08/24 17:25:40;;;;;;;18.52;8.13;;;;;;;;;;16887865;29;20268;-82
2022/08/24 17:34:01;;;;;;;18.40;8.18;;;;;;;;;;16895996;29;20209;-80
2022/08/24 17:42:21;;;;;;;17.38;8.18;;;;;;;;;;16896502;29;20212;-80
2022/08/24 17:50:42;;;;;;;20.05;7.20;;;;;;;;;;16901340;29;20236;-80
2022/08/24 17:59:19;;;;;;;18.08;7.82;;;;;;;;;;16929495;28;20236;-80
2022/08/24 18:07:42;;;;;;;18.38;7.15;;;;;;;;;;16959756;29;20276;-80
2022/08/24 18:16:03;;;;;;;27.73;7.47;;;;;;;;;;16952789;29;20240;-80
2022/08/24 18:24:24;;;;;;;15.55;6.30;;;;;;;;;;16889503;28;20613;-80
2022/08/24 18:32:45;;;;;;;15.45;6.82;;;;;;;;;;16888609;28;20671;-80
2022/08/24 18:41:05;;;;;;;14.18;6.35;;;;;;;;;;16889644;28;20775;-81
2022/08/24 18:49:26;;;;;;;11.38;5.55;;;;;;;;;;16888597;28;20244;-81
2022/08/24 18:57:47;;;;;;;10.80;5.80;;;;;;;;;;16887448;28;20336;-81
2022/08/24 19:06:07;;;;;;;11.25;5.93;;;;;;;;;;16896607;29;20175;-81
2022/08/24 19:14:29;;;;;;;12.60;6.03;;;;;;;;;;16890688;28;20262;-81
2022/08/24 19:22:50;;;;;;;10.50;5.85;;;;;;;;;;16889782;28;20537;-81
2022/08/24 19:31:11;;;;;;;14.13;5.70;;;;;;;;;;16888680;29;20217;-81
2022/08/24 19:39:32;;;;;;;9.00;5.32;;;;;;;;;;16885767;28;20205;-81
2022/08/24 19:47:52;;;;;;;13.65;6.18;;;;;;;;;;16886100;29;20244;-82
2022/08/24 19:56:12;;;;;;;13.68;6.18;;;;;;;;;;16886239;28;20236;-81
2022/08/24 20:04:33;;;;;;;14.35;5.65;;;;;;;;;;16885244;28;20280;-81
2022/08/24 20:12:58;;;;;;;10.25;6.13;;;;;;;;;;16885060;29;20220;-81
2022/08/24 20:21:19;;;;;;;10.80;6.50;;;;;;;;;;16883426;29;20157;-81
2022/08/24 20:29:39;;;;;;;11.18;6.30;;;;;;;;;;16885132;28;20213;-81
2022/08/24 20:38:00;;;;;;;12.73;6.75;;;;;;;;;;16884175;28;20169;-81
2022/08/24 20:46:21;;;;;;;14.45;7.07;;;;;;;;;;16888067;29;20197;-81
2022/08/24 20:54:42;;;;;;;12.65;7.00;;;;;;;;;;16892168;28;20705;-81
2022/08/24 21:03:02;;;;;;;8.75;6.65;;;;;;;;;;16893035;28;20181;-81
2022/08/24 21:11:22;;;;;;;14.57;6.65;;;;;;;;;;16893012;28;20197;-81
2022/08/24 21:19:43;;;;;;;14.40;6.60;;;;;;;;;;16891100;29;20483;-82
2022/08/24 21:28:03;;;;;;;12.77;6.88;;;;;;;;;;16892939;29;20201;-81
2022/08/24 21:36:24;;;;;;;10.93;6.70;;;;;;;;;;16891317;29;20181;-81
2022/08/24 21:44:45;;;;;;;12.15;7.05;;;;;;;;;;16889917;29;20288;-81
2022/08/24 21:53:05;;;;;;;13.15;7.35;;;;;;;;;;16890883;29;20193;-81
2022/08/24 22:01:27;;;;;;;12.77;6.68;;;;;;;;;;16891395;28;20291;-81
2022/08/24 22:09:47;;;;;;;15.02;7.47;;;;;;;;;;16890081;28;20209;-81
2022/08/24 22:18:08;;;;;;;14.05;7.32;;;;;;;;;;16887338;29;20801;-81
2022/08/24 22:26:29;;;;;;;14.35;7.45;;;;;;;;;;16887087;29;20268;-82
2022/08/24 22:34:49;;;;;;;15.75;7.15;;;;;;;;;;16888630;28;20199;-82
2022/08/24 22:43:10;;;;;;;16.23;7.38;;;;;;;;;;16887631;28;20201;-82
2022/08/24 22:51:31;;;;;;;10.93;7.18;;;;;;;;;;16887738;28;20209;-82
2022/08/24 22:59:51;;;;;;;12.80;7.75;;;;;;;;;;16888381;29;20233;-82
2022/08/24 23:08:11;;;;;;;18.05;7.32;;;;;;;;;;16883794;29;20209;-82
2022/08/24 23:16:33;;;;;;;17.52;7.43;;;;;;;;;;16884287;29;20256;-81
2022/08/24 23:24:53;;;;;;;14.63;7.63;;;;;;;;;;16886601;29;20177;-81
2022/08/24 23:33:14;;;;;;;14.57;7.43;;;;;;;;;;16886998;28;20197;-82
2022/08/24 23:41:35;;;;;;;14.18;7.25;;;;;;;;;;16884829;28;20311;-81
2022/08/24 23:49:56;;;;;;;12.23;7.73;;;;;;;;;;16887514;28;20201;-82
2022/08/24 23:58:16;;;;;;;12.07;7.20;;;;;;;;;;16885567;28;20688;-82
